sensor_id;sensor_type;location;lat;lon;timestamp;temperature;humidity
15262;DHT22;7733;51.554;13.590;2023-11-21T00:01:37;8.20;99.90
15262;DHT22;7733;51.554;13.590;2023-11-21T00:04:03;8.30;99.90
15262;DHT22;7733;51.554;13.590;2023-11-21T00:06:29;8.30;99.90
15262;DHT22;7733;51.554;13.590;2023-11-21T00:08:56;8.20;99.90
15262;DHT22;7733;51.554;13.590;2023-11-21T00:11:21;8.30;99.90
15262;DHT22;7733;51.554;13.590;2023-11-21T00:13:47;8.20;99.90
15262;DHT22;7733;51.554;13.590;2023-11-21T00:16:13;8.20;99.90
15262;DHT22;7733;51.554;13.590;2023-11-21T00:18:38;8.20;99.90
15262;DHT22;7733;51.554;13.590;2023-11-21T00:21:05;8.20;99.90
15262;DHT22;7733;51.554;13.590;2023-11-21T00:23:30;8.20;99.90
15262;DHT22;7733;51.554;13.590;2023-11-21T00:25:56;8.20;99.90
15262;DHT22;7733;51.554;13.590;2023-11-21T00:28:22;8.20;99.90
15262;DHT22;7733;51.554;13.590;2023-11-21T00:30:48;8.30;99.90
15262;DHT22;7733;51.554;13.590;2023-11-21T00:33:14;8.30;99.90
15262;DHT22;7733;51.554;13.590;2023-11-21T00:35:39;8.30;99.90
15262;DHT22;7733;51.554;13.590;2023-11-21T00:38:05;8.30;99.90
15262;DHT22;7733;51.554;13.590;2023-11-21T00:40:31;8.30;99.90
15262;DHT22;7733;51.554;13.590;2023-11-21T00:42:56;8.30;99.90
15262;DHT22;7733;51.554;13.590;2023-11-21T00:45:22;8.20;99.90
15262;DHT22;7733;51.554;13.590;2023-11-21T00:47:48;8.30;99.90
15262;DHT22;7733;51.554;13.590;2023-11-21T00:50:14;8.20;99.90
15262;DHT22;7733;51.554;13.590;2023-11-21T00:52:40;8.20;99.90
15262;DHT22;7733;51.554;13.590;2023-11-21T00:55:06;8.20;99.90
15262;DHT22;7733;51.554;13.590;2023-11-21T00:57:33;8.20;99.90
15262;DHT22;7733;51.554;13.590;2023-11-21T01:00:00;8.20;99.90
15262;DHT22;7733;51.554;13.590;2023-11-21T01:02:26;8.30;99.90
15262;DHT22;7733;51.554;13.590;2023-11-21T01:04:51;8.30;99.90
15262;DHT22;7733;51.554;13.590;2023-11-21T01:07:17;8.30;99.90
15262;DHT22;7733;51.554;13.590;2023-11-21T01:09:46;8.30;99.90
15262;DHT22;7733;51.554;13.590;2023-11-21T01:12:11;8.30;99.90
15262;DHT22;7733;51.554;13.590;2023-11-21T01:14:37;8.30;99.90
15262;DHT22;7733;51.554;13.590;2023-11-21T01:17:03;8.30;99.90
15262;DHT22;7733;51.554;13.590;2023-11-21T01:19:30;8.30;99.90
15262;DHT22;7733;51.554;13.590;2023-11-21T01:21:56;8.30;99.90
15262;DHT22;7733;51.554;13.590;2023-11-21T01:24:23;8.30;99.90
15262;DHT22;7733;51.554;13.590;2023-11-21T01:26:49;8.40;99.90
15262;DHT22;7733;51.554;13.590;2023-11-21T01:29:14;8.40;99.90
15262;DHT22;7733;51.554;13.590;2023-11-21T01:31:40;8.30;99.90
15262;DHT22;7733;51.554;13.590;2023-11-21T01:34:06;8.40;99.90
15262;DHT22;7733;51.554;13.590;2023-11-21T01:36:32;8.30;99.90
15262;DHT22;7733;51.554;13.590;2023-11-21T01:38:59;8.40;99.90
15262;DHT22;7733;51.554;13.590;2023-11-21T01:41:26;8.40;99.90
15262;DHT22;7733;51.554;13.590;2023-11-21T01:43:54;8.40;99.90
15262;DHT22;7733;51.554;13.590;2023-11-21T01:46:21;8.30;99.90
15262;DHT22;7733;51.554;13.590;2023-11-21T01:48:49;8.30;99.90
15262;DHT22;7733;51.554;13.590;2023-11-21T01:51:15;8.30;99.90
15262;DHT22;7733;51.554;13.590;2023-11-21T01:53:40;8.30;99.90
15262;DHT22;7733;51.554;13.590;2023-11-21T01:56:07;8.30;99.90
15262;DHT22;7733;51.554;13.590;2023-11-21T01:58:35;8.30;99.90
15262;DHT22;7733;51.554;13.590;2023-11-21T02:01:01;8.30;99.90
15262;DHT22;7733;51.554;13.590;2023-11-21T02:03:27;8.30;99.90
15262;DHT22;7733;51.554;13.590;2023-11-21T02:05:53;8.30;99.90
15262;DHT22;7733;51.554;13.590;2023-11-21T02:08:19;8.30;99.90
15262;DHT22;7733;51.554;13.590;2023-11-21T02:10:45;8.30;99.90
15262;DHT22;7733;51.554;13.590;2023-11-21T02:13:11;8.30;99.90
15262;DHT22;7733;51.554;13.590;2023-11-21T02:15:37;8.30;99.90
15262;DHT22;7733;51.554;13.590;2023-11-21T02:18:04;8.40;99.90
15262;DHT22;7733;51.554;13.590;2023-11-21T02:20:31;8.40;99.90
15262;DHT22;7733;51.554;13.590;2023-11-21T02:23:00;8.30;99.90
15262;DHT22;7733;51.554;13.590;2023-11-21T02:25:31;8.40;99.90
15262;DHT22;7733;51.554;13.590;2023-11-21T02:27:59;8.40;99.90
15262;DHT22;7733;51.554;13.590;2023-11-21T02:30:26;8.30;99.90
15262;DHT22;7733;51.554;13.590;2023-11-21T02:32:53;8.40;99.90
15262;DHT22;7733;51.554;13.590;2023-11-21T02:35:23;8.30;99.90
15262;DHT22;7733;51.554;13.590;2023-11-21T02:37:49;8.30;99.90
15262;DHT22;7733;51.554;13.590;2023-11-21T02:40:15;8.30;99.90
15262;DHT22;7733;51.554;13.590;2023-11-21T02:42:46;8.40;99.90
15262;DHT22;7733;51.554;13.590;2023-11-21T02:45:19;8.40;99.90
15262;DHT22;7733;51.554;13.590;2023-11-21T02:47:49;8.30;99.90
15262;DHT22;7733;51.554;13.590;2023-11-21T02:50:15;8.20;99.90
15262;DHT22;7733;51.554;13.590;2023-11-21T02:52:41;8.30;99.90
15262;DHT22;7733;51.554;13.590;2023-11-21T02:55:07;8.30;99.90
15262;DHT22;7733;51.554;13.590;2023-11-21T02:57:33;8.40;99.90
15262;DHT22;7733;51.554;13.590;2023-11-21T02:59:59;8.40;99.90
15262;DHT22;7733;51.554;13.590;2023-11-21T03:02:25;8.30;99.90
15262;DHT22;7733;51.554;13.590;2023-11-21T03:04:51;8.30;99.90
15262;DHT22;7733;51.554;13.590;2023-11-21T03:07:17;8.30;99.90
15262;DHT22;7733;51.554;13.590;2023-11-21T03:09:45;8.20;99.90
15262;DHT22;7733;51.554;13.590;2023-11-21T03:12:11;8.20;99.90
15262;DHT22;7733;51.554;13.590;2023-11-21T03:14:41;8.20;99.90
15262;DHT22;7733;51.554;13.590;2023-11-21T03:17:07;8.10;99.90
15262;DHT22;7733;51.554;13.590;2023-11-21T03:19:32;8.20;99.90
15262;DHT22;7733;51.554;13.590;2023-11-21T03:21:58;8.20;99.90
15262;DHT22;7733;51.554;13.590;2023-11-21T03:24:24;8.10;99.90
15262;DHT22;7733;51.554;13.590;2023-11-21T03:26:51;8.20;99.90
15262;DHT22;7733;51.554;13.590;2023-11-21T03:29:18;8.20;99.90
15262;DHT22;7733;51.554;13.590;2023-11-21T03:31:44;8.20;99.90
15262;DHT22;7733;51.554;13.590;2023-11-21T03:34:15;8.30;99.90
15262;DHT22;7733;51.554;13.590;2023-11-21T03:36:45;8.20;99.90
15262;DHT22;7733;51.554;13.590;2023-11-21T03:39:11;8.20;99.90
15262;DHT22;7733;51.554;13.590;2023-11-21T03:41:37;8.20;99.90
15262;DHT22;7733;51.554;13.590;2023-11-21T03:44:03;8.20;99.90
15262;DHT22;7733;51.554;13.590;2023-11-21T03:46:29;8.20;99.90
15262;DHT22;7733;51.554;13.590;2023-11-21T03:48:55;8.10;99.90
15262;DHT22;7733;51.554;13.590;2023-11-21T03:51:21;8.10;99.90
15262;DHT22;7733;51.554;13.590;2023-11-21T03:53:47;8.20;99.90
15262;DHT22;7733;51.554;13.590;2023-11-21T03:56:14;8.20;99.90
15262;DHT22;7733;51.554;13.590;2023-11-21T03:58:40;8.10;99.90
15262;DHT22;7733;51.554;13.590;2023-11-21T04:01:05;8.10;99.90
15262;DHT22;7733;51.554;13.590;2023-11-21T04:03:31;8.10;99.90
15262;DHT22;7733;51.554;13.590;2023-11-21T04:05:57;8.10;99.90
15262;DHT22;7733;51.554;13.590;2023-11-21T04:08:23;8.10;99.90
15262;DHT22;7733;51.554;13.590;2023-11-21T04:10:48;8.10;99.90
15262;DHT22;7733;51.554;13.590;2023-11-21T04:13:14;8.10;99.90
15262;DHT22;7733;51.554;13.590;2023-11-21T04:15:40;8.10;99.90
15262;DHT22;7733;51.554;13.590;2023-11-21T04:18:05;8.10;99.90
15262;DHT22;7733;51.554;13.590;2023-11-21T04:20:31;8.10;99.90
15262;DHT22;7733;51.554;13.590;2023-11-21T04:22:57;8.10;99.90
15262;DHT22;7733;51.554;13.590;2023-11-21T04:25:23;8.10;99.90
15262;DHT22;7733;51.554;13.590;2023-11-21T04:27:49;8.00;99.90
15262;DHT22;7733;51.554;13.590;2023-11-21T04:30:15;8.00;99.90
15262;DHT22;7733;51.554;13.590;2023-11-21T04:32:41;8.00;99.90
15262;DHT22;7733;51.554;13.590;2023-11-21T04:35:07;8.00;99.90
15262;DHT22;7733;51.554;13.590;2023-11-21T04:37:34;8.00;99.90
15262;DHT22;7733;51.554;13.590;2023-11-21T04:40:00;8.10;99.90
15262;DHT22;7733;51.554;13.590;2023-11-21T04:42:26;8.10;99.90
15262;DHT22;7733;51.554;13.590;2023-11-21T04:44:51;8.00;99.90
15262;DHT22;7733;51.554;13.590;2023-11-21T04:47:18;8.10;99.90
15262;DHT22;7733;51.554;13.590;2023-11-21T04:49:46;8.00;99.90
15262;DHT22;7733;51.554;13.590;2023-11-21T04:52:15;8.00;99.90
15262;DHT22;7733;51.554;13.590;2023-11-21T04:54:40;8.00;99.90
15262;DHT22;7733;51.554;13.590;2023-11-21T04:57:06;8.00;99.90
15262;DHT22;7733;51.554;13.590;2023-11-21T04:59:35;8.00;99.90
15262;DHT22;7733;51.554;13.590;2023-11-21T05:02:01;8.00;99.90
15262;DHT22;7733;51.554;13.590;2023-11-21T05:04:26;8.00;99.90
15262;DHT22;7733;51.554;13.590;2023-11-21T05:06:52;8.00;99.90
15262;DHT22;7733;51.554;13.590;2023-11-21T05:09:18;8.00;99.90
15262;DHT22;7733;51.554;13.590;2023-11-21T05:11:44;8.00;99.90
15262;DHT22;7733;51.554;13.590;2023-11-21T05:14:09;8.00;99.90
15262;DHT22;7733;51.554;13.590;2023-11-21T05:16:35;8.00;99.90
15262;DHT22;7733;51.554;13.590;2023-11-21T05:19:02;8.00;99.90
15262;DHT22;7733;51.554;13.590;2023-11-21T05:21:28;8.00;99.90
15262;DHT22;7733;51.554;13.590;2023-11-21T05:23:57;7.90;99.90
15262;DHT22;7733;51.554;13.590;2023-11-21T05:26:23;8.00;99.90
15262;DHT22;7733;51.554;13.590;2023-11-21T05:28:49;8.00;99.90
15262;DHT22;7733;51.554;13.590;2023-11-21T05:31:15;8.00;99.90
15262;DHT22;7733;51.554;13.590;2023-11-21T05:33:41;8.00;99.90
15262;DHT22;7733;51.554;13.590;2023-11-21T05:36:07;8.10;99.90
15262;DHT22;7733;51.554;13.590;2023-11-21T05:38:35;8.00;99.90
15262;DHT22;7733;51.554;13.590;2023-11-21T05:41:02;8.00;99.90
15262;DHT22;7733;51.554;13.590;2023-11-21T05:43:29;8.00;99.90
15262;DHT22;7733;51.554;13.590;2023-11-21T05:45:56;8.10;99.90
15262;DHT22;7733;51.554;13.590;2023-11-21T05:48:22;8.10;99.90
15262;DHT22;7733;51.554;13.590;2023-11-21T05:50:48;7.90;99.90
15262;DHT22;7733;51.554;13.590;2023-11-21T05:53:15;8.00;99.90
15262;DHT22;7733;51.554;13.590;2023-11-21T05:55:42;8.00;99.90
15262;DHT22;7733;51.554;13.590;2023-11-21T05:58:08;8.00;99.90
15262;DHT22;7733;51.554;13.590;2023-11-21T06:00:34;8.00;99.90
15262;DHT22;7733;51.554;13.590;2023-11-21T06:03:00;8.00;99.90
15262;DHT22;7733;51.554;13.590;2023-11-21T06:05:26;8.00;99.90
15262;DHT22;7733;51.554;13.590;2023-11-21T06:07:53;7.90;99.90
15262;DHT22;7733;51.554;13.590;2023-11-21T06:10:21;7.90;99.90
15262;DHT22;7733;51.554;13.590;2023-11-21T06:12:47;8.00;99.90
15262;DHT22;7733;51.554;13.590;2023-11-21T06:15:13;8.00;99.90
15262;DHT22;7733;51.554;13.590;2023-11-21T06:17:40;8.00;99.90
15262;DHT22;7733;51.554;13.590;2023-11-21T06:20:09;8.00;99.90
15262;DHT22;7733;51.554;13.590;2023-11-21T06:22:41;8.00;99.90
15262;DHT22;7733;51.554;13.590;2023-11-21T06:25:08;8.00;99.90
15262;DHT22;7733;51.554;13.590;2023-11-21T06:27:39;8.00;99.90
15262;DHT22;7733;51.554;13.590;2023-11-21T06:30:07;8.00;99.90
15262;DHT22;7733;51.554;13.590;2023-11-21T06:32:38;8.00;99.90
15262;DHT22;7733;51.554;13.590;2023-11-21T06:35:05;8.00;99.90
15262;DHT22;7733;51.554;13.590;2023-11-21T06:37:32;7.80;99.90
15262;DHT22;7733;51.554;13.590;2023-11-21T06:39:59;7.70;99.90
15262;DHT22;7733;51.554;13.590;2023-11-21T06:42:26;7.70;99.90
15262;DHT22;7733;51.554;13.590;2023-11-21T06:44:53;7.70;99.90
15262;DHT22;7733;51.554;13.590;2023-11-21T06:47:23;7.60;99.90
15262;DHT22;7733;51.554;13.590;2023-11-21T06:49:53;7.50;99.90
15262;DHT22;7733;51.554;13.590;2023-11-21T06:52:20;7.40;99.90
15262;DHT22;7733;51.554;13.590;2023-11-21T06:54:48;7.40;99.90
15262;DHT22;7733;51.554;13.590;2023-11-21T06:57:17;7.40;99.90
15262;DHT22;7733;51.554;13.590;2023-11-21T06:59:43;7.40;99.90
15262;DHT22;7733;51.554;13.590;2023-11-21T07:02:09;7.40;99.90
15262;DHT22;7733;51.554;13.590;2023-11-21T07:04:36;7.40;99.90
15262;DHT22;7733;51.554;13.590;2023-11-21T07:07:02;7.40;99.90
15262;DHT22;7733;51.554;13.590;2023-11-21T07:09:29;7.30;99.90
15262;DHT22;7733;51.554;13.590;2023-11-21T07:11:56;7.30;99.90
15262;DHT22;7733;51.554;13.590;2023-11-21T07:14:22;7.20;99.90
15262;DHT22;7733;51.554;13.590;2023-11-21T07:16:48;7.10;99.90
15262;DHT22;7733;51.554;13.590;2023-11-21T07:19:14;7.10;99.90
15262;DHT22;7733;51.554;13.590;2023-11-21T07:21:40;7.20;99.90
15262;DHT22;7733;51.554;13.590;2023-11-21T07:24:07;7.00;99.90
15262;DHT22;7733;51.554;13.590;2023-11-21T07:26:34;6.90;99.90
15262;DHT22;7733;51.554;13.590;2023-11-21T07:29:01;7.00;99.90
15262;DHT22;7733;51.554;13.590;2023-11-21T07:31:28;6.90;99.90
15262;DHT22;7733;51.554;13.590;2023-11-21T07:33:55;6.80;99.90
15262;DHT22;7733;51.554;13.590;2023-11-21T07:36:24;6.70;99.90
15262;DHT22;7733;51.554;13.590;2023-11-21T07:38:50;6.70;99.90
15262;DHT22;7733;51.554;13.590;2023-11-21T07:41:17;6.70;99.90
15262;DHT22;7733;51.554;13.590;2023-11-21T07:43:44;6.70;99.90
15262;DHT22;7733;51.554;13.590;2023-11-21T07:46:12;6.70;99.90
15262;DHT22;7733;51.554;13.590;2023-11-21T07:48:42;6.70;99.90
15262;DHT22;7733;51.554;13.590;2023-11-21T07:51:09;6.70;99.90
15262;DHT22;7733;51.554;13.590;2023-11-21T07:53:35;6.70;99.90
15262;DHT22;7733;51.554;13.590;2023-11-21T07:56:06;6.70;99.90
15262;DHT22;7733;51.554;13.590;2023-11-21T07:58:34;6.60;99.90
15262;DHT22;7733;51.554;13.590;2023-11-21T08:01:03;6.50;99.90
15262;DHT22;7733;51.554;13.590;2023-11-21T08:03:30;6.40;99.90
15262;DHT22;7733;51.554;13.590;2023-11-21T08:05:57;6.40;99.90
15262;DHT22;7733;51.554;13.590;2023-11-21T08:08:23;6.40;99.90
15262;DHT22;7733;51.554;13.590;2023-11-21T08:10:50;6.40;99.90
15262;DHT22;7733;51.554;13.590;2023-11-21T08:13:23;6.50;99.90
15262;DHT22;7733;51.554;13.590;2023-11-21T08:15:49;6.30;99.90
15262;DHT22;7733;51.554;13.590;2023-11-21T08:18:15;6.20;99.90
15262;DHT22;7733;51.554;13.590;2023-11-21T08:20:43;6.20;99.90
15262;DHT22;7733;51.554;13.590;2023-11-21T08:23:10;6.20;99.90
15262;DHT22;7733;51.554;13.590;2023-11-21T08:25:36;6.20;99.90
15262;DHT22;7733;51.554;13.590;2023-11-21T08:28:02;6.20;99.90
15262;DHT22;7733;51.554;13.590;2023-11-21T08:30:29;6.30;99.90
15262;DHT22;7733;51.554;13.590;2023-11-21T08:32:55;6.20;99.90
15262;DHT22;7733;51.554;13.590;2023-11-21T08:35:24;6.10;99.90
15262;DHT22;7733;51.554;13.590;2023-11-21T08:37:52;6.10;99.90
15262;DHT22;7733;51.554;13.590;2023-11-21T08:40:19;6.10;99.90
15262;DHT22;7733;51.554;13.590;2023-11-21T08:42:46;6.20;99.90
15262;DHT22;7733;51.554;13.590;2023-11-21T08:45:14;6.20;99.90
15262;DHT22;7733;51.554;13.590;2023-11-21T08:47:40;6.20;99.90
15262;DHT22;7733;51.554;13.590;2023-11-21T08:50:07;6.20;99.90
15262;DHT22;7733;51.554;13.590;2023-11-21T08:52:33;6.30;99.90
15262;DHT22;7733;51.554;13.590;2023-11-21T08:55:00;6.10;99.90
15262;DHT22;7733;51.554;13.590;2023-11-21T08:57:36;6.00;99.90
15262;DHT22;7733;51.554;13.590;2023-11-21T09:00:07;6.00;99.90
15262;DHT22;7733;51.554;13.590;2023-11-21T09:02:39;6.20;99.90
15262;DHT22;7733;51.554;13.590;2023-11-21T09:05:07;6.20;99.90
15262;DHT22;7733;51.554;13.590;2023-11-21T09:07:35;6.10;99.90
15262;DHT22;7733;51.554;13.590;2023-11-21T09:10:03;6.10;99.90
15262;DHT22;7733;51.554;13.590;2023-11-21T09:12:29;6.10;99.90
15262;DHT22;7733;51.554;13.590;2023-11-21T09:14:55;6.10;99.90
15262;DHT22;7733;51.554;13.590;2023-11-21T09:17:20;6.10;99.90
15262;DHT22;7733;51.554;13.590;2023-11-21T09:19:46;6.10;99.90
15262;DHT22;7733;51.554;13.590;2023-11-21T09:22:16;6.10;99.90
15262;DHT22;7733;51.554;13.590;2023-11-21T09:24:42;6.10;99.90
15262;DHT22;7733;51.554;13.590;2023-11-21T09:27:08;6.10;99.90
15262;DHT22;7733;51.554;13.590;2023-11-21T09:29:35;6.20;99.90
15262;DHT22;7733;51.554;13.590;2023-11-21T09:32:05;6.20;99.90
15262;DHT22;7733;51.554;13.590;2023-11-21T09:34:33;6.00;99.90
15262;DHT22;7733;51.554;13.590;2023-11-21T09:37:07;6.00;99.90
15262;DHT22;7733;51.554;13.590;2023-11-21T09:39:33;6.00;99.90
15262;DHT22;7733;51.554;13.590;2023-11-21T09:42:08;6.10;99.90
15262;DHT22;7733;51.554;13.590;2023-11-21T09:44:51;6.00;99.90
15262;DHT22;7733;51.554;13.590;2023-11-21T09:47:24;6.10;99.90
15262;DHT22;7733;51.554;13.590;2023-11-21T09:49:51;6.30;99.90
15262;DHT22;7733;51.554;13.590;2023-11-21T09:52:25;6.20;99.90
15262;DHT22;7733;51.554;13.590;2023-11-21T09:54:53;6.30;99.90
15262;DHT22;7733;51.554;13.590;2023-11-21T09:57:20;6.30;99.90
15262;DHT22;7733;51.554;13.590;2023-11-21T09:59:53;6.20;99.90
15262;DHT22;7733;51.554;13.590;2023-11-21T10:02:33;6.20;99.90
15262;DHT22;7733;51.554;13.590;2023-11-21T10:05:02;6.20;99.90
15262;DHT22;7733;51.554;13.590;2023-11-21T10:07:31;6.20;99.90
15262;DHT22;7733;51.554;13.590;2023-11-21T10:10:00;6.20;99.90
15262;DHT22;7733;51.554;13.590;2023-11-21T10:12:28;6.30;99.90
15262;DHT22;7733;51.554;13.590;2023-11-21T10:14:57;6.20;99.90
15262;DHT22;7733;51.554;13.590;2023-11-21T10:17:24;6.30;99.90
15262;DHT22;7733;51.554;13.590;2023-11-21T10:19:56;6.20;99.90
15262;DHT22;7733;51.554;13.590;2023-11-21T10:22:23;6.20;99.90
15262;DHT22;7733;51.554;13.590;2023-11-21T10:24:49;6.10;99.90
15262;DHT22;7733;51.554;13.590;2023-11-21T10:27:15;6.20;99.90
15262;DHT22;7733;51.554;13.590;2023-11-21T10:29:41;6.20;99.90
15262;DHT22;7733;51.554;13.590;2023-11-21T10:32:07;6.20;99.90
15262;DHT22;7733;51.554;13.590;2023-11-21T10:34:33;6.20;99.90
15262;DHT22;7733;51.554;13.590;2023-11-21T10:37:11;6.20;99.90
15262;DHT22;7733;51.554;13.590;2023-11-21T10:39:38;6.30;99.90
15262;DHT22;7733;51.554;13.590;2023-11-21T10:42:08;6.10;99.90
15262;DHT22;7733;51.554;13.590;2023-11-21T10:44:35;6.10;99.90
15262;DHT22;7733;51.554;13.590;2023-11-21T10:47:01;6.00;99.90
15262;DHT22;7733;51.554;13.590;2023-11-21T10:49:28;6.00;99.90
15262;DHT22;7733;51.554;13.590;2023-11-21T10:51:54;6.10;99.90
15262;DHT22;7733;51.554;13.590;2023-11-21T10:54:21;6.00;99.90
15262;DHT22;7733;51.554;13.590;2023-11-21T10:56:50;6.00;99.90
15262;DHT22;7733;51.554;13.590;2023-11-21T10:59:18;6.00;99.90
15262;DHT22;7733;51.554;13.590;2023-11-21T11:01:46;6.00;99.90
15262;DHT22;7733;51.554;13.590;2023-11-21T11:04:15;6.00;99.90
15262;DHT22;7733;51.554;13.590;2023-11-21T11:06:45;5.90;99.90
15262;DHT22;7733;51.554;13.590;2023-11-21T11:09:17;5.90;99.90
15262;DHT22;7733;51.554;13.590;2023-11-21T11:11:43;5.90;99.90
15262;DHT22;7733;51.554;13.590;2023-11-21T11:14:13;5.90;99.90
15262;DHT22;7733;51.554;13.590;2023-11-21T11:16:40;5.90;99.90
15262;DHT22;7733;51.554;13.590;2023-11-21T11:19:11;5.90;99.90
15262;DHT22;7733;51.554;13.590;2023-11-21T11:27:44;6.00;99.90
15262;DHT22;7733;51.554;13.590;2023-11-21T11:30:28;6.00;99.90
15262;DHT22;7733;51.554;13.590;2023-11-21T11:36:36;6.00;99.90
15262;DHT22;7733;51.554;13.590;2023-11-21T11:42:10;5.70;99.90
15262;DHT22;7733;51.554;13.590;2023-11-21T11:47:26;5.70;99.90
15262;DHT22;7733;51.554;13.590;2023-11-21T11:50:02;5.70;99.90
15262;DHT22;7733;51.554;13.590;2023-11-21T11:52:51;5.70;99.90
15262;DHT22;7733;51.554;13.590;2023-11-21T11:55:21;5.70;99.90
15262;DHT22;7733;51.554;13.590;2023-11-21T11:57:50;5.70;99.90
15262;DHT22;7733;51.554;13.590;2023-11-21T12:00:19;5.60;99.90
15262;DHT22;7733;51.554;13.590;2023-11-21T12:02:59;5.40;99.90
15262;DHT22;7733;51.554;13.590;2023-11-21T12:05:32;5.50;99.90
15262;DHT22;7733;51.554;13.590;2023-11-21T12:08:03;5.30;99.90
15262;DHT22;7733;51.554;13.590;2023-11-21T12:10:34;5.30;99.90
15262;DHT22;7733;51.554;13.590;2023-11-21T12:13:04;5.40;99.90
15262;DHT22;7733;51.554;13.590;2023-11-21T12:15:36;5.30;99.90
15262;DHT22;7733;51.554;13.590;2023-11-21T12:18:03;5.30;99.90
15262;DHT22;7733;51.554;13.590;2023-11-21T12:20:29;5.40;99.90
15262;DHT22;7733;51.554;13.590;2023-11-21T12:22:59;5.50;99.90
15262;DHT22;7733;51.554;13.590;2023-11-21T12:25:28;5.40;99.90
15262;DHT22;7733;51.554;13.590;2023-11-21T12:27:55;5.30;99.90
15262;DHT22;7733;51.554;13.590;2023-11-21T12:30:24;5.40;99.90
15262;DHT22;7733;51.554;13.590;2023-11-21T12:32:55;5.30;99.90
15262;DHT22;7733;51.554;13.590;2023-11-21T12:35:24;5.30;99.90
15262;DHT22;7733;51.554;13.590;2023-11-21T12:37:52;5.40;99.90
15262;DHT22;7733;51.554;13.590;2023-11-21T12:40:20;5.20;99.90
15262;DHT22;7733;51.554;13.590;2023-11-21T12:42:51;5.20;99.90
15262;DHT22;7733;51.554;13.590;2023-11-21T12:47:48;5.20;99.90
15262;DHT22;7733;51.554;13.590;2023-11-21T12:50:23;5.10;99.90
15262;DHT22;7733;51.554;13.590;2023-11-21T12:52:57;5.10;99.90
15262;DHT22;7733;51.554;13.590;2023-11-21T12:55:24;5.10;99.90
15262;DHT22;7733;51.554;13.590;2023-11-21T12:57:53;5.10;99.90
15262;DHT22;7733;51.554;13.590;2023-11-21T13:00:33;5.00;99.90
15262;DHT22;7733;51.554;13.590;2023-11-21T13:03:04;5.00;99.90
15262;DHT22;7733;51.554;13.590;2023-11-21T13:05:33;5.00;99.90
15262;DHT22;7733;51.554;13.590;2023-11-21T13:08:03;5.00;99.90
15262;DHT22;7733;51.554;13.590;2023-11-21T13:10:32;4.90;99.90
15262;DHT22;7733;51.554;13.590;2023-11-21T13:13:08;4.90;99.90
15262;DHT22;7733;51.554;13.590;2023-11-21T13:15:40;5.00;99.90
15262;DHT22;7733;51.554;13.590;2023-11-21T13:18:06;4.90;99.90
15262;DHT22;7733;51.554;13.590;2023-11-21T13:20:32;5.00;99.90
15262;DHT22;7733;51.554;13.590;2023-11-21T13:22:59;4.90;99.90
15262;DHT22;7733;51.554;13.590;2023-11-21T13:25:26;4.90;99.90
15262;DHT22;7733;51.554;13.590;2023-11-21T13:27:58;5.00;99.90
15262;DHT22;7733;51.554;13.590;2023-11-21T13:30:27;4.90;99.90
15262;DHT22;7733;51.554;13.590;2023-11-21T13:32:59;5.00;99.90
15262;DHT22;7733;51.554;13.590;2023-11-21T13:35:37;5.00;99.90
15262;DHT22;7733;51.554;13.590;2023-11-21T13:38:11;5.10;99.90
15262;DHT22;7733;51.554;13.590;2023-11-21T13:40:39;5.10;99.90
15262;DHT22;7733;51.554;13.590;2023-11-21T13:43:11;5.00;99.90
15262;DHT22;7733;51.554;13.590;2023-11-21T13:45:42;5.10;99.90
15262;DHT22;7733;51.554;13.590;2023-11-21T13:48:10;5.00;99.90
15262;DHT22;7733;51.554;13.590;2023-11-21T13:50:43;5.00;99.90
15262;DHT22;7733;51.554;13.590;2023-11-21T13:53:34;5.10;99.90
15262;DHT22;7733;51.554;13.590;2023-11-21T13:56:03;5.10;99.90
15262;DHT22;7733;51.554;13.590;2023-11-21T13:58:29;5.00;99.90
15262;DHT22;7733;51.554;13.590;2023-11-21T14:01:10;5.00;99.90
15262;DHT22;7733;51.554;13.590;2023-11-21T14:03:57;4.80;99.90
15262;DHT22;7733;51.554;13.590;2023-11-21T14:06:48;4.80;99.90
15262;DHT22;7733;51.554;13.590;2023-11-21T14:09:20;4.70;99.90
15262;DHT22;7733;51.554;13.590;2023-11-21T14:11:55;4.80;99.90
15262;DHT22;7733;51.554;13.590;2023-11-21T14:14:24;4.60;99.90
15262;DHT22;7733;51.554;13.590;2023-11-21T14:16:52;4.60;99.90
15262;DHT22;7733;51.554;13.590;2023-11-21T14:19:18;4.80;99.90
15262;DHT22;7733;51.554;13.590;2023-11-21T14:21:44;4.70;99.90
15262;DHT22;7733;51.554;13.590;2023-11-21T14:24:13;4.60;99.90
15262;DHT22;7733;51.554;13.590;2023-11-21T14:26:41;4.80;99.90
15262;DHT22;7733;51.554;13.590;2023-11-21T14:29:09;4.70;99.90
15262;DHT22;7733;51.554;13.590;2023-11-21T14:31:39;4.80;99.90
15262;DHT22;7733;51.554;13.590;2023-11-21T14:34:05;4.90;99.90
15262;DHT22;7733;51.554;13.590;2023-11-21T14:36:33;5.00;99.90
15262;DHT22;7733;51.554;13.590;2023-11-21T14:38:59;4.90;99.90
15262;DHT22;7733;51.554;13.590;2023-11-21T14:41:25;4.80;99.90
15262;DHT22;7733;51.554;13.590;2023-11-21T14:43:51;4.90;99.90
15262;DHT22;7733;51.554;13.590;2023-11-21T14:46:17;4.90;99.90
15262;DHT22;7733;51.554;13.590;2023-11-21T14:48:45;4.90;99.90
15262;DHT22;7733;51.554;13.590;2023-11-21T14:51:24;4.90;99.90
15262;DHT22;7733;51.554;13.590;2023-11-21T14:53:50;4.90;99.90
15262;DHT22;7733;51.554;13.590;2023-11-21T14:56:22;4.90;99.90
15262;DHT22;7733;51.554;13.590;2023-11-21T14:59:01;4.80;99.90
15262;DHT22;7733;51.554;13.590;2023-11-21T15:01:41;4.90;99.90
15262;DHT22;7733;51.554;13.590;2023-11-21T15:04:10;4.60;99.90
15262;DHT22;7733;51.554;13.590;2023-11-21T15:06:54;4.70;99.90
15262;DHT22;7733;51.554;13.590;2023-11-21T15:09:23;4.70;99.90
15262;DHT22;7733;51.554;13.590;2023-11-21T15:11:54;4.80;99.90
15262;DHT22;7733;51.554;13.590;2023-11-21T15:14:25;4.70;99.90
15262;DHT22;7733;51.554;13.590;2023-11-21T15:16:57;4.70;99.90
15262;DHT22;7733;51.554;13.590;2023-11-21T15:19:25;4.50;99.90
15262;DHT22;7733;51.554;13.590;2023-11-21T15:21:52;4.50;99.90
15262;DHT22;7733;51.554;13.590;2023-11-21T15:24:17;4.50;99.90
15262;DHT22;7733;51.554;13.590;2023-11-21T15:26:43;4.40;99.90
15262;DHT22;7733;51.554;13.590;2023-11-21T15:29:09;4.40;99.90
15262;DHT22;7733;51.554;13.590;2023-11-21T15:31:36;4.40;99.90
15262;DHT22;7733;51.554;13.590;2023-11-21T15:34:03;4.50;99.90
15262;DHT22;7733;51.554;13.590;2023-11-21T15:36:31;4.50;99.90
15262;DHT22;7733;51.554;13.590;2023-11-21T15:38:57;4.50;99.90
15262;DHT22;7733;51.554;13.590;2023-11-21T15:41:23;4.50;99.90
15262;DHT22;7733;51.554;13.590;2023-11-21T15:43:49;4.40;99.90
15262;DHT22;7733;51.554;13.590;2023-11-21T15:46:16;4.40;99.90
15262;DHT22;7733;51.554;13.590;2023-11-21T15:48:42;4.40;99.90
15262;DHT22;7733;51.554;13.590;2023-11-21T15:51:15;4.40;99.90
15262;DHT22;7733;51.554;13.590;2023-11-21T15:53:42;4.30;99.90
15262;DHT22;7733;51.554;13.590;2023-11-21T15:56:08;4.30;99.90
15262;DHT22;7733;51.554;13.590;2023-11-21T15:58:38;4.30;99.90
15262;DHT22;7733;51.554;13.590;2023-11-21T16:01:12;4.30;99.90
15262;DHT22;7733;51.554;13.590;2023-11-21T16:03:39;4.20;99.90
15262;DHT22;7733;51.554;13.590;2023-11-21T16:06:05;4.20;99.90
15262;DHT22;7733;51.554;13.590;2023-11-21T16:08:35;4.30;99.90